Time;durP1;ratioP1;P1;durP2;ratioP2;P2;SDS_P1;SDS_P2;PMS_P1;PMS_P2;Temp;Humidity;BMP_temperature;BMP_pressure;BME280_temperature;BME280_humidity;BME280_pressure;Samples;Min_cycle;Max_cycle;Signal;HPM_P1;HPM_P2
2024/04/09 00:00:45;;;;;;;3.83;1.02;;;26.50;27.90;;;;;;5374989;26;20158;-61
2024/04/09 00:03:11;;;;;;;3.50;0.93;;;26.40;27.90;;;;;;5375322;26;20065;-61
2024/04/09 00:05:39;;;;;;;14.75;1.63;;;26.60;27.90;;;;;;5370810;26;20394;-60
2024/04/09 00:08:07;;;;;;;7.18;1.40;;;26.50;28.00;;;;;;5376403;26;20090;-62
2024/04/09 00:10:36;;;;;;;7.00;1.45;;;26.60;28.00;;;;;;5374858;26;20092;-62
2024/04/09 00:13:05;;;;;;;3.40;1.00;;;26.60;28.10;;;;;;5373904;26;20604;-61
2024/04/09 00:15:33;;;;;;;4.35;1.00;;;26.50;27.60;;;;;;5375369;26;20095;-61
2024/04/09 00:18:14;;;;;;;6.85;1.00;;;26.30;27.40;;;;;;5375845;26;20069;-61
2024/04/09 00:20:45;;;;;;;4.97;1.33;;;26.30;27.80;;;;;;5375384;26;20068;-63
2024/04/09 00:23:16;;;;;;;8.38;1.42;;;26.40;28.30;;;;;;5374764;26;20065;-62
2024/04/09 00:25:45;;;;;;;3.00;1.05;;;26.60;28.30;;;;;;5370402;26;20153;-62
2024/04/09 00:28:12;;;;;;;4.78;0.85;;;26.70;27.70;;;;;;5368956;26;20162;-61
2024/04/09 00:30:44;;;;;;;4.70;1.17;;;26.30;27.30;;;;;;5371305;26;20096;-62
2024/04/09 00:33:14;;;;;;;12.30;1.75;;;26.20;27.90;;;;;;5375123;26;20099;-62
2024/04/09 00:35:41;;;;;;;7.00;1.10;;;26.20;28.30;;;;;;5373229;26;20097;-63
2024/04/09 00:38:07;;;;;;;2.97;1.08;;;26.20;28.60;;;;;;5374604;26;20158;-61
2024/04/09 00:40:36;;;;;;;5.13;1.30;;;25.90;28.60;;;;;;5373952;26;20154;-60
2024/04/09 00:43:04;;;;;;;3.00;1.00;;;25.90;28.90;;;;;;5373754;26;20065;-60
2024/04/09 00:45:31;;;;;;;3.22;0.93;;;26.00;29.10;;;;;;5370383;26;20448;-59
2024/04/09 00:48:02;;;;;;;3.83;1.10;;;25.70;28.30;;;;;;5374500;26;20212;-59
2024/04/09 00:50:29;;;;;;;9.20;1.40;;;25.70;28.60;;;;;;5373725;26;20096;-62
2024/04/09 00:52:58;;;;;;;10.88;1.27;;;25.60;28.50;;;;;;5373312;26;20507;-61
2024/04/09 00:55:25;;;;;;;4.22;1.17;;;25.60;28.70;;;;;;5374103;26;20401;-62
2024/04/09 00:57:52;;;;;;;9.13;1.20;;;25.50;28.70;;;;;;5373409;26;20108;-60
2024/04/09 01:00:20;;;;;;;4.00;1.10;;;25.50;28.80;;;;;;5373322;26;20069;-61
2024/04/09 01:02:49;;;;;;;6.55;1.20;;;25.50;29.00;;;;;;5374011;26;20095;-62
2024/04/09 01:05:17;;;;;;;12.25;1.48;;;25.50;29.10;;;;;;5371955;26;20069;-60
2024/04/09 01:07:44;;;;;;;7.03;1.45;;;25.40;28.90;;;;;;5373929;26;20069;-60
2024/04/09 01:10:10;;;;;;;7.00;1.58;;;25.50;28.90;;;;;;5373070;26;20526;-61
2024/04/09 01:12:37;;;;;;;5.20;1.30;;;25.70;28.90;;;;;;5369694;26;20104;-60
2024/04/09 01:15:04;;;;;;;8.80;1.65;;;25.70;28.50;;;;;;5376613;26;20421;-62
2024/04/09 01:17:32;;;;;;;6.22;1.30;;;25.90;28.30;;;;;;5377132;26;20400;-61
2024/04/09 01:19:59;;;;;;;3.97;1.15;;;25.80;28.70;;;;;;5375434;26;20473;-62
2024/04/09 01:22:32;;;;;;;3.50;1.10;;;25.50;28.70;;;;;;5376023;26;20069;-62
2024/04/09 01:24:59;;;;;;;8.63;1.50;;;25.40;29.00;;;;;;5374711;26;20069;-60
2024/04/09 01:27:25;;;;;;;4.63;1.02;;;25.10;29.10;;;;;;5376524;26;20538;-64
2024/04/09 01:29:53;;;;;;;9.23;1.40;;;24.90;29.50;;;;;;5376755;26;20065;-61
2024/04/09 01:32:20;;;;;;;7.80;1.33;;;24.70;29.70;;;;;;5376384;26;20394;-61
2024/04/09 01:34:47;;;;;;;6.95;1.30;;;24.60;30.00;;;;;;5376856;26;20084;-61
2024/04/09 01:37:17;;;;;;;10.55;1.33;;;24.50;30.00;;;;;;5377126;26;20116;-61
2024/04/09 01:39:45;;;;;;;8.35;1.23;;;24.40;30.00;;;;;;5376907;26;20092;-61
2024/04/09 01:42:15;;;;;;;7.93;1.50;;;24.30;29.80;;;;;;5376147;26;20091;-62
2024/04/09 01:44:43;;;;;;;8.18;1.70;;;24.20;30.10;;;;;;5376083;26;20117;-61
2024/04/09 01:47:10;;;;;;;9.55;1.55;;;24.20;30.20;;;;;;5376835;26;20076;-62
2024/04/09 01:49:36;;;;;;;6.55;1.30;;;24.10;30.00;;;;;;5376609;26;20154;-61
2024/04/09 01:52:04;;;;;;;6.55;1.45;;;24.00;30.00;;;;;;5375714;26;20103;-62
2024/04/09 01:54:31;;;;;;;4.90;1.65;;;24.00;29.90;;;;;;5376778;26;20069;-62
2024/04/09 01:56:57;;;;;;;9.65;1.65;;;23.90;30.20;;;;;;5373132;26;20065;-62
2024/04/09 01:59:24;;;;;;;16.25;2.00;;;23.80;30.50;;;;;;5373375;26;20076;-61
2024/04/09 02:01:50;;;;;;;6.90;1.25;;;23.70;30.20;;;;;;5371698;26;20552;-60
2024/04/09 02:04:17;;;;;;;3.25;1.45;;;23.60;30.50;;;;;;5375765;26;20065;-60
2024/04/09 02:06:46;;;;;;;10.75;1.75;;;23.50;31.00;;;;;;5377012;26;20095;-60
2024/04/09 02:09:12;;;;;;;5.00;1.38;;;23.50;31.10;;;;;;5374874;26;20491;-61
2024/04/09 02:11:39;;;;;;;7.22;1.80;;;23.40;31.30;;;;;;5375279;26;20069;-60
2024/04/09 02:14:05;;;;;;;7.03;1.60;;;23.40;31.50;;;;;;5371107;26;20479;-60
2024/04/09 02:16:32;;;;;;;5.95;1.60;;;23.30;31.90;;;;;;5375100;26;20579;-61
2024/04/09 02:18:58;;;;;;;9.35;2.20;;;23.20;31.90;;;;;;5375434;26;20402;-60
2024/04/09 02:21:25;;;;;;;12.05;1.98;;;23.10;32.40;;;;;;5372602;26;20115;-61
2024/04/09 02:23:51;;;;;;;18.58;10.35;;;23.00;32.40;;;;;;5374390;26;20081;-62
2024/04/09 02:26:23;;;;;;;10.98;1.92;;;23.00;32.90;;;;;;5340987;26;20065;-61
2024/04/09 02:28:50;;;;;;;5.70;1.70;;;22.90;32.90;;;;;;5375135;26;20147;-61
2024/04/09 02:31:16;;;;;;;10.45;2.22;;;22.90;33.60;;;;;;5372607;26;20069;-61
2024/04/09 02:33:43;;;;;;;12.27;1.70;;;22.80;33.60;;;;;;5374394;26;20065;-61
2024/04/09 02:36:09;;;;;;;10.55;2.00;;;22.70;33.80;;;;;;5375973;26;20534;-61
2024/04/09 02:38:36;;;;;;;8.80;1.70;;;22.60;34.20;;;;;;5376806;26;20541;-56
2024/04/09 02:41:04;;;;;;;16.23;2.10;;;22.60;34.60;;;;;;5375229;26;20064;-58
2024/04/09 02:43:30;;;;;;;15.95;2.28;;;22.50;34.90;;;;;;5375791;26;20068;-58
2024/04/09 02:45:58;;;;;;;11.88;1.70;;;22.40;35.30;;;;;;5374743;26;20544;-58
2024/04/09 02:48:25;;;;;;;21.25;2.35;;;22.30;35.70;;;;;;5375066;26;20071;-61
2024/04/09 02:50:56;;;;;;;11.05;1.70;;;22.30;36.20;;;;;;5375280;26;20064;-58
2024/04/09 02:53:23;;;;;;;24.92;3.05;;;22.20;36.60;;;;;;5375655;26;20160;-59
2024/04/09 02:56:03;;;;;;;23.05;2.33;;;22.10;37.20;;;;;;5372735;26;20538;-61
2024/04/09 02:58:31;;;;;;;12.98;1.70;;;22.10;37.60;;;;;;5375238;26;20073;-60
2024/04/09 03:01:04;;;;;;;12.13;1.83;;;21.90;38.30;;;;;;5373266;26;20071;-61
2024/04/09 03:03:31;;;;;;;18.65;2.35;;;21.80;39.30;;;;;;5372654;26;20064;-61
2024/04/09 03:06:04;;;;;;;14.32;2.40;;;21.50;40.20;;;;;;5375209;26;20068;-61
2024/04/09 03:08:30;;;;;;;21.30;2.33;;;21.40;40.80;;;;;;5375451;26;20064;-61
2024/04/09 03:10:57;;;;;;;11.13;2.20;;;21.10;42.00;;;;;;5370670;26;20493;-60
2024/04/09 03:13:23;;;;;;;11.15;2.10;;;21.00;42.40;;;;;;5376002;26;20099;-61
2024/04/09 03:15:50;;;;;;;13.25;1.77;;;21.00;42.30;;;;;;5376461;26;20063;-61
2024/04/09 03:18:17;;;;;;;11.63;1.65;;;20.90;41.80;;;;;;5375079;26;20090;-61
2024/04/09 03:20:44;;;;;;;18.83;2.50;;;20.90;42.50;;;;;;5370413;26;20107;-61
2024/04/09 03:23:10;;;;;;;11.02;2.53;;;20.80;41.50;;;;;;5373889;26;20460;-61
2024/04/09 03:25:37;;;;;;;9.65;2.88;;;20.80;41.40;;;;;;5375755;26;20159;-61
2024/04/09 03:28:04;;;;;;;9.23;1.83;;;20.80;40.80;;;;;;5375732;26;20513;-61
2024/04/09 03:30:30;;;;;;;11.60;2.13;;;20.90;40.20;;;;;;5375790;26;20166;-61
2024/04/09 03:32:56;;;;;;;9.70;1.75;;;20.90;40.10;;;;;;5375435;26;20094;-61
2024/04/09 03:35:23;;;;;;;6.18;1.50;;;21.00;40.20;;;;;;5374526;26;20142;-61
2024/04/09 03:37:49;;;;;;;13.63;2.10;;;21.00;39.90;;;;;;5377470;26;20091;-61
2024/04/09 03:40:16;;;;;;;7.78;2.00;;;21.00;40.10;;;;;;5375665;26;20113;-59
2024/04/09 03:42:45;;;;;;;10.15;2.30;;;21.00;39.80;;;;;;5375776;26;20498;-60
2024/04/09 03:45:11;;;;;;;11.13;2.05;;;21.10;39.50;;;;;;5375509;26;20412;-61
2024/04/09 03:47:37;;;;;;;18.30;2.33;;;21.10;39.60;;;;;;5375305;26;20152;-61
2024/04/09 03:50:05;;;;;;;15.48;2.40;;;21.10;39.30;;;;;;5375112;26;20483;-61
2024/04/09 03:52:31;;;;;;;12.15;2.20;;;21.10;39.20;;;;;;5372530;26;20069;-61
2024/04/09 03:54:58;;;;;;;10.32;2.47;;;21.10;39.40;;;;;;5375852;26;20497;-60
2024/04/09 03:57:24;;;;;;;14.57;2.00;;;21.10;39.40;;;;;;5375666;26;20068;-60
2024/04/09 03:59:50;;;;;;;8.63;1.65;;;21.20;39.50;;;;;;5375738;26;20094;-61
2024/04/09 04:02:17;;;;;;;12.23;2.05;;;21.20;39.70;;;;;;5372801;26;20128;-61
2024/04/09 04:04:44;;;;;;;11.27;1.80;;;21.20;39.70;;;;;;5369123;26;20064;-61
2024/04/09 04:07:15;;;;;;;11.25;1.70;;;21.20;39.40;;;;;;5376416;26;20446;-61
2024/04/09 04:09:43;;;;;;;10.60;2.10;;;21.20;39.40;;;;;;5375328;26;20517;-61
2024/04/09 04:12:09;;;;;;;13.18;2.05;;;21.20;39.30;;;;;;5375456;26;20406;-62
2024/04/09 04:14:35;;;;;;;14.63;2.00;;;21.20;39.20;;;;;;5375267;26;20113;-61
2024/04/09 04:17:05;;;;;;;12.40;1.85;;;21.20;39.40;;;;;;5371888;26;20064;-61
2024/04/09 04:19:31;;;;;;;14.35;2.17;;;21.20;39.10;;;;;;5374686;26;20530;-61
2024/04/09 04:21:58;;;;;;;16.83;2.15;;;21.20;38.70;;;;;;5375398;26;20514;-61
2024/04/09 04:24:28;;;;;;;10.32;1.63;;;21.20;38.30;;;;;;5375252;26;20095;-61
2024/04/09 04:26:55;;;;;;;19.25;2.80;;;21.20;37.70;;;;;;5375160;26;20434;-61
2024/04/09 04:29:21;;;;;;;17.58;2.35;;;21.30;36.90;;;;;;5374338;26;20408;-61
2024/04/09 04:31:47;;;;;;;13.60;2.03;;;21.30;36.50;;;;;;5375119;26;20096;-61
2024/04/09 04:34:15;;;;;;;12.50;2.20;;;21.30;36.00;;;;;;5374981;26;20166;-61
2024/04/09 04:36:42;;;;;;;10.52;1.73;;;21.40;35.20;;;;;;5375001;26;20118;-59
2024/04/09 04:39:09;;;;;;;16.38;2.15;;;21.40;35.00;;;;;;5375623;26;20153;-60
2024/04/09 04:41:36;;;;;;;8.20;1.85;;;21.40;34.70;;;;;;5374853;26;20061;-60
2024/04/09 04:44:03;;;;;;;14.63;1.67;;;21.40;34.30;;;;;;5374316;26;20156;-60
2024/04/09 04:46:29;;;;;;;21.67;2.60;;;21.40;34.10;;;;;;5374774;26;20602;-61
2024/04/09 04:48:56;;;;;;;10.05;2.38;;;21.30;33.40;;;;;;5371026;26;20065;-62
2024/04/09 04:51:22;;;;;;;12.65;2.03;;;21.30;32.90;;;;;;5377777;26;20425;-60
2024/04/09 04:53:48;;;;;;;13.75;2.47;;;21.30;32.50;;;;;;5377754;26;20105;-60
2024/04/09 04:56:15;;;;;;;12.05;1.80;;;21.30;31.60;;;;;;5378088;26;20137;-60
2024/04/09 04:58:41;;;;;;;15.32;1.88;;;21.30;31.60;;;;;;5371104;26;20536;-60
2024/04/09 05:01:08;;;;;;;11.82;1.65;;;21.30;31.20;;;;;;5377856;26;20065;-60
2024/04/09 05:03:34;;;;;;;8.23;2.00;;;21.20;30.60;;;;;;5377657;26;20067;-61
2024/04/09 05:06:05;;;;;;;5.90;1.35;;;21.20;30.40;;;;;;5377973;26;20065;-60
2024/04/09 05:08:32;;;;;;;10.82;1.95;;;21.20;30.30;;;;;;5371990;26;21311;-61
2024/04/09 05:11:06;;;;;;;13.20;1.75;;;21.10;30.20;;;;;;5373247;26;20401;-60
2024/04/09 05:13:32;;;;;;;11.10;2.33;;;21.10;30.00;;;;;;5377088;26;20065;-61
2024/04/09 05:15:59;;;;;;;8.23;1.90;;;21.10;30.00;;;;;;5373336;26;20446;-60
2024/04/09 05:18:25;;;;;;;8.07;1.52;;;21.00;30.00;;;;;;5377141;26;20069;-60
2024/04/09 05:20:52;;;;;;;8.88;1.73;;;21.00;29.90;;;;;;5377584;26;20103;-59
2024/04/09 05:23:18;;;;;;;9.90;1.73;;;21.00;30.00;;;;;;5377326;26;20081;-60
2024/04/09 05:25:45;;;;;;;18.98;1.70;;;20.90;29.20;;;;;;5377511;26;20087;-61
2024/04/09 05:28:11;;;;;;;11.88;1.50;;;21.00;29.60;;;;;;5375922;26;20103;-60
2024/04/09 05:30:38;;;;;;;14.00;2.03;;;20.90;29.80;;;;;;5377648;26;20166;-61
2024/04/09 05:33:04;;;;;;;7.47;1.60;;;21.00;29.50;;;;;;5377484;26;20417;-61
2024/04/09 05:35:31;;;;;;;9.70;1.30;;;20.90;29.50;;;;;;5377636;26;20077;-61
2024/04/09 05:37:57;;;;;;;14.40;1.70;;;20.90;29.40;;;;;;5378007;26;20150;-61
2024/04/09 05:40:24;;;;;;;7.05;1.30;;;20.90;29.30;;;;;;5377736;26;20565;-61
2024/04/09 05:42:51;;;;;;;8.52;2.13;;;20.90;29.60;;;;;;5373186;26;20401;-61
2024/04/09 05:45:20;;;;;;;12.02;1.52;;;20.80;29.50;;;;;;5377794;26;20065;-61
2024/04/09 05:47:47;;;;;;;8.52;1.65;;;20.70;29.50;;;;;;5375616;26;20096;-61
2024/04/09 05:50:13;;;;;;;8.23;1.85;;;20.70;29.50;;;;;;5377006;26;20615;-60
2024/04/09 05:52:40;;;;;;;10.15;1.63;;;20.70;29.40;;;;;;5377103;26;20069;-61
2024/04/09 05:55:07;;;;;;;6.25;1.30;;;20.70;29.50;;;;;;5372997;26;20153;-60
2024/04/09 05:57:36;;;;;;;6.35;1.20;;;20.60;29.60;;;;;;5376853;26;21163;-60
2024/04/09 06:00:11;;;;;;;8.52;5.30;;;20.60;29.50;;;;;;5376050;26;20099;-60
2024/04/09 06:02:37;;;;;;;11.65;5.75;;;20.60;29.50;;;;;;5377444;26;20117;-60
2024/04/09 06:05:04;;;;;;;12.27;7.00;;;20.60;29.60;;;;;;5376703;26;20065;-60
2024/04/09 06:07:31;;;;;;;19.98;18.02;;;20.60;29.40;;;;;;5377619;26;20095;-60
2024/04/09 06:09:58;;;;;;;12.27;2.03;;;20.60;29.40;;;;;;5377600;26;20782;-61
2024/04/09 06:12:24;;;;;;;8.77;1.52;;;20.60;29.50;;;;;;5376680;26;20076;-60
2024/04/09 06:14:53;;;;;;;8.27;1.73;;;20.60;29.60;;;;;;5370348;26;20065;-61
2024/04/09 06:17:20;;;;;;;8.10;1.70;;;20.50;30.00;;;;;;5376556;26;20092;-61
2024/04/09 06:19:48;;;;;;;7.90;2.05;;;20.40;30.30;;;;;;5371399;26;21101;-60
2024/04/09 06:22:14;;;;;;;8.55;1.50;;;20.40;30.80;;;;;;5372203;26;20096;-61
2024/04/09 06:24:41;;;;;;;9.50;1.60;;;20.30;31.00;;;;;;5376939;26;20543;-60
2024/04/09 06:27:08;;;;;;;6.35;1.40;;;20.30;31.30;;;;;;5376329;26;20537;-61
2024/04/09 06:29:34;;;;;;;8.82;1.42;;;20.30;31.10;;;;;;5376917;26;20065;-59
2024/04/09 06:32:01;;;;;;;6.22;1.98;;;20.20;30.80;;;;;;5376819;26;20100;-59
2024/04/09 06:34:27;;;;;;;13.32;1.60;;;20.20;30.50;;;;;;5376779;26;20100;-60
2024/04/09 06:36:54;;;;;;;11.23;2.20;;;20.20;30.40;;;;;;5376533;26;20098;-60
2024/04/09 06:39:20;;;;;;;6.78;1.52;;;20.10;30.40;;;;;;5377847;26;20065;-60
2024/04/09 06:41:47;;;;;;;6.75;1.42;;;20.10;30.60;;;;;;5376252;26;20145;-60
2024/04/09 06:44:14;;;;;;;4.85;1.20;;;20.00;30.80;;;;;;5376628;26;20495;-59
2024/04/09 06:46:41;;;;;;;14.32;1.40;;;20.00;31.30;;;;;;5377097;26;20069;-60
2024/04/09 06:49:07;;;;;;;8.70;2.00;;;19.90;30.90;;;;;;5376263;26;20487;-60
2024/04/09 06:51:33;;;;;;;10.38;1.58;;;19.90;30.70;;;;;;5376465;26;20069;-60
2024/04/09 06:54:00;;;;;;;5.75;1.60;;;19.80;30.40;;;;;;5375658;26;20410;-60
2024/04/09 06:56:26;;;;;;;5.75;1.30;;;19.70;30.50;;;;;;5376240;26;20095;-61
2024/04/09 06:58:53;;;;;;;8.52;1.75;;;19.60;30.80;;;;;;5376387;26;20069;-60
2024/04/09 07:01:19;;;;;;;7.90;2.35;;;19.50;30.90;;;;;;5371542;26;20171;-61
2024/04/09 07:03:46;;;;;;;6.72;2.03;;;19.40;31.50;;;;;;5375020;26;20095;-61
2024/04/09 07:06:12;;;;;;;7.18;1.48;;;19.20;32.50;;;;;;5376211;26;20545;-61
2024/04/09 07:08:39;;;;;;;12.48;2.20;;;19.00;33.20;;;;;;5377050;26;20065;-60
2024/04/09 07:11:06;;;;;;;8.32;2.50;;;18.80;33.70;;;;;;5375627;26;20061;-60
2024/04/09 07:13:33;;;;;;;10.98;3.00;;;18.70;34.00;;;;;;5376341;26;20065;-60
2024/04/09 07:16:00;;;;;;;11.00;2.50;;;18.50;34.40;;;;;;5376118;26;20149;-60
2024/04/09 07:18:27;;;;;;;6.80;2.33;;;18.40;34.20;;;;;;5375668;26;20096;-61
2024/04/09 07:20:54;;;;;;;22.67;3.30;;;18.30;34.10;;;;;;5375826;26;20068;-61
2024/04/09 07:23:20;;;;;;;8.45;2.78;;;18.30;34.00;;;;;;5376041;26;20454;-60
2024/04/09 07:25:46;;;;;;;11.70;2.88;;;18.20;33.90;;;;;;5376152;26;20092;-60
2024/04/09 07:28:13;;;;;;;14.95;3.22;;;18.10;33.70;;;;;;5376156;26;20104;-61
2024/04/09 07:30:40;;;;;;;12.98;2.92;;;18.10;33.50;;;;;;5374287;26;20092;-60
2024/04/09 07:33:06;;;;;;;10.02;2.58;;;18.10;33.70;;;;;;5375668;26;20065;-60
2024/04/09 07:35:33;;;;;;;10.80;2.70;;;18.10;33.60;;;;;;5375615;26;20064;-61
2024/04/09 07:38:00;;;;;;;8.57;2.10;;;18.00;33.70;;;;;;5376252;26;20069;-60
2024/04/09 07:40:26;;;;;;;9.13;2.00;;;18.00;33.70;;;;;;5376478;26;20162;-61
2024/04/09 07:42:53;;;;;;;14.50;2.15;;;18.00;33.70;;;;;;5375714;26;20069;-61
2024/04/09 07:45:19;;;;;;;8.23;1.77;;;18.00;33.60;;;;;;5375628;26;20099;-61
2024/04/09 07:47:49;;;;;;;10.45;1.85;;;18.00;33.70;;;;;;5375864;26;20494;-61
2024/04/09 07:50:16;;;;;;;7.85;1.70;;;18.00;33.60;;;;;;5373076;26;20065;-60
2024/04/09 07:52:43;;;;;;;6.18;1.52;;;18.00;33.50;;;;;;5375242;26;20069;-61
2024/04/09 07:55:09;;;;;;;6.93;1.45;;;18.00;33.50;;;;;;5376217;26;20539;-60
2024/04/09 07:57:39;;;;;;;11.38;1.65;;;18.00;33.40;;;;;;5375567;26;20372;-60
2024/04/09 08:00:13;;;;;;;4.93;1.48;;;18.00;33.10;;;;;;5375513;26;20433;-59
2024/04/09 08:02:46;;;;;;;6.75;1.40;;;18.10;32.80;;;;;;5375501;26;20094;-62
2024/04/09 08:05:15;;;;;;;4.47;1.40;;;18.20;32.60;;;;;;5375384;26;20511;-60
2024/04/09 08:07:41;;;;;;;7.85;1.63;;;18.20;32.60;;;;;;5375347;26;20596;-59
2024/04/09 08:10:12;;;;;;;5.18;1.55;;;18.20;32.50;;;;;;5369264;26;20065;-59
2024/04/09 08:12:54;;;;;;;8.15;1.70;;;18.30;32.70;;;;;;5374212;26;20578;-61
2024/04/09 08:15:24;;;;;;;11.25;1.90;;;18.20;32.70;;;;;;5374005;26;20069;-60
2024/04/09 08:17:51;;;;;;;4.57;1.60;;;18.20;32.90;;;;;;5374485;26;20091;-60
2024/04/09 08:20:18;;;;;;;6.80;1.63;;;18.20;33.20;;;;;;5375125;26;20076;-59
2024/04/09 08:22:50;;;;;;;12.63;2.25;;;18.20;33.30;;;;;;5372688;26;20061;-60
2024/04/09 08:25:18;;;;;;;8.02;1.73;;;18.00;33.60;;;;;;5373957;26;20515;-60
2024/04/09 08:27:45;;;;;;;5.05;1.52;;;17.90;34.30;;;;;;5374228;26;20065;-59
2024/04/09 08:30:14;;;;;;;8.00;1.50;;;17.80;34.90;;;;;;5373716;26;20120;-60
2024/04/09 08:32:42;;;;;;;9.00;1.65;;;17.60;35.30;;;;;;5373836;26;20091;-59
2024/04/09 08:35:11;;;;;;;6.75;1.80;;;17.50;35.70;;;;;;5374043;26;20099;-60
2024/04/09 08:37:38;;;;;;;8.75;1.83;;;17.40;35.80;;;;;;5370046;26;20108;-60
2024/04/09 08:40:05;;;;;;;11.88;2.03;;;17.30;35.80;;;;;;5373175;26;20511;-59
2024/04/09 08:42:35;;;;;;;8.35;1.50;;;17.30;35.80;;;;;;5373214;26;20116;-59
2024/04/09 08:45:02;;;;;;;10.07;1.65;;;17.20;35.70;;;;;;5373878;26;20069;-59
2024/04/09 08:47:29;;;;;;;8.27;1.45;;;17.20;35.50;;;;;;5373604;26;20150;-59
2024/04/09 08:49:55;;;;;;;10.82;2.05;;;17.20;35.40;;;;;;5360311;26;20442;-59
2024/04/09 08:52:29;;;;;;;7.82;1.50;;;17.20;35.40;;;;;;5372388;26;20097;-60
2024/04/09 08:54:56;;;;;;;5.13;1.23;;;17.20;35.80;;;;;;5373409;26;20557;-60
2024/04/09 08:57:22;;;;;;;7.93;1.73;;;17.20;35.00;;;;;;5373371;26;20542;-60
2024/04/09 08:59:48;;;;;;;6.25;1.20;;;17.20;34.80;;;;;;5373586;26;20076;-60
2024/04/09 09:02:16;;;;;;;11.20;1.40;;;17.30;34.50;;;;;;5373156;26;20065;-60
2024/04/09 09:04:45;;;;;;;6.07;1.27;;;17.30;34.30;;;;;;5373254;26;20069;-60
2024/04/09 09:07:15;;;;;;;5.47;1.48;;;17.30;34.20;;;;;;5373611;26;20081;-60
2024/04/09 09:09:43;;;;;;;11.15;1.80;;;17.40;34.10;;;;;;5374638;26;20065;-60
2024/04/09 09:12:10;;;;;;;8.23;1.40;;;17.40;34.10;;;;;;5373158;26;20154;-60
2024/04/09 09:14:37;;;;;;;5.35;1.50;;;17.40;34.00;;;;;;5373144;26;20101;-59
2024/04/09 09:17:05;;;;;;;10.07;1.98;;;17.40;33.90;;;;;;5372940;26;20155;-60
2024/04/09 09:19:36;;;;;;;7.88;2.20;;;17.50;34.10;;;;;;5372405;26;20102;-60
2024/04/09 09:22:09;;;;;;;3.92;2.00;;;17.50;34.10;;;;;;5373108;26;20150;-59
2024/04/09 09:24:36;;;;;;;8.05;2.30;;;17.50;34.20;;;;;;5373056;26;20069;-60
2024/04/09 09:27:10;;;;;;;5.63;1.80;;;17.50;34.10;;;;;;5370909;26;20475;-60
2024/04/09 09:29:37;;;;;;;7.03;1.55;;;17.50;34.00;;;;;;5373378;26;20065;-60
2024/04/09 09:32:13;;;;;;;6.10;1.55;;;17.50;33.90;;;;;;5372508;26;20096;-61
2024/04/09 09:34:43;;;;;;;7.15;1.58;;;17.50;33.80;;;;;;5374539;26;20101;-61
2024/04/09 09:37:11;;;;;;;7.65;1.60;;;17.50;33.60;;;;;;5371106;26;20507;-61
2024/04/09 09:39:41;;;;;;;6.20;1.60;;;17.60;33.50;;;;;;5372495;26;20198;-61
2024/04/09 09:42:12;;;;;;;2.97;1.33;;;17.60;33.30;;;;;;5376285;26;20417;-60
2024/04/09 09:44:42;;;;;;;6.95;1.60;;;17.60;33.30;;;;;;5376504;26;20099;-61
2024/04/09 09:47:09;;;;;;;4.72;1.52;;;17.60;33.10;;;;;;5370927;26;20176;-60
2024/04/09 09:49:36;;;;;;;4.95;1.60;;;17.60;32.90;;;;;;5375932;26;20073;-60
2024/04/09 09:52:04;;;;;;;5.63;1.50;;;17.60;32.70;;;;;;5376368;26;20712;-61
2024/04/09 09:54:30;;;;;;;5.47;1.25;;;17.60;32.50;;;;;;5375963;26;20097;-61
2024/04/09 09:57:03;;;;;;;7.32;1.40;;;17.70;32.70;;;;;;5372468;26;20093;-60
2024/04/09 09:59:44;;;;;;;4.82;1.50;;;17.70;32.40;;;;;;5375316;26;20069;-61
2024/04/09 10:02:11;;;;;;;4.88;1.48;;;17.70;32.30;;;;;;5373548;26;20065;-61
2024/04/09 10:04:38;;;;;;;7.82;1.33;;;17.60;32.60;;;;;;5375593;26;20095;-61
2024/04/09 10:07:06;;;;;;;6.88;1.38;;;17.60;32.70;;;;;;5374037;26;20095;-61
2024/04/09 10:09:46;;;;;;;4.10;1.10;;;17.60;32.50;;;;;;5377278;26;20081;-61
2024/04/09 10:12:31;;;;;;;7.25;1.20;;;17.60;32.50;;;;;;5374510;26;20068;-60
2024/04/09 10:15:16;;;;;;;6.63;1.45;;;17.60;32.50;;;;;;5375904;26;20129;-60
2024/04/09 10:17:53;;;;;;;5.70;1.20;;;17.60;32.70;;;;;;5374258;26;20091;-61
2024/04/09 10:20:19;;;;;;;;;;;17.60;32.70;;;;;;5369787;26;21131;-60
2024/04/09 10:22:47;;;;;;;5.78;1.58;;;17.50;32.80;;;;;;5376015;26;20079;-61
2024/04/09 10:25:22;;;;;;;6.78;1.15;;;17.50;33.00;;;;;;5375771;26;20491;-61
2024/04/09 10:28:15;;;;;;;3.88;1.23;;;17.40;33.20;;;;;;5375777;26;20165;-61
2024/04/09 10:30:46;;;;;;;5.70;1.13;;;17.30;33.20;;;;;;5373344;26;20801;-60
2024/04/09 10:33:12;;;;;;;3.85;1.30;;;17.40;33.40;;;;;;5375265;26;20065;-60
2024/04/09 10:35:46;;;;;;;4.30;1.33;;;17.30;33.50;;;;;;5375570;26;20108;-60
2024/04/09 10:38:13;;;;;;;2.83;1.23;;;17.30;33.50;;;;;;5375548;26;20440;-60
2024/04/09 10:40:41;;;;;;;4.40;1.13;;;17.20;33.60;;;;;;5377136;26;20069;-60
2024/04/09 10:43:10;;;;;;;4.45;1.30;;;17.20;33.80;;;;;;5375113;26;20069;-60
2024/04/09 10:45:36;;;;;;;6.13;1.20;;;17.20;34.00;;;;;;5374923;26;20402;-60
2024/04/09 10:48:03;;;;;;;5.40;1.40;;;17.20;34.10;;;;;;5374883;26;20481;-59
2024/04/09 10:50:31;;;;;;;5.00;1.00;;;17.20;34.20;;;;;;5375417;26;20069;-60
2024/04/09 10:52:57;;;;;;;5.18;1.13;;;17.20;34.40;;;;;;5375047;26;20113;-60
2024/04/09 10:55:24;;;;;;;2.35;1.05;;;17.10;34.50;;;;;;5375146;26;20065;-60
2024/04/09 10:57:51;;;;;;;3.25;1.20;;;17.10;34.70;;;;;;5374966;26;20069;-60
2024/04/09 11:00:19;;;;;;;3.65;1.48;;;17.10;34.80;;;;;;5371740;26;20105;-60
2024/04/09 11:02:46;;;;;;;8.85;1.35;;;17.10;34.80;;;;;;5374395;26;20151;-60
2024/04/09 11:05:16;;;;;;;3.55;1.35;;;17.10;35.00;;;;;;5375331;26;20099;-61
2024/04/09 11:07:44;;;;;;;3.55;1.30;;;17.10;34.90;;;;;;5371405;26;20398;-60
2024/04/09 11:10:13;;;;;;;4.18;1.30;;;17.00;34.80;;;;;;5375780;26;20159;-59
2024/04/09 11:12:45;;;;;;;3.88;1.35;;;17.10;34.90;;;;;;5374887;26;20097;-60
2024/04/09 11:15:13;;;;;;;3.78;1.35;;;17.10;34.60;;;;;;5373752;26;20069;-60
2024/04/09 11:17:41;;;;;;;5.50;1.30;;;17.10;34.60;;;;;;5374337;26;20117;-59
2024/04/09 11:20:15;;;;;;;4.13;1.00;;;17.10;34.30;;;;;;5375089;26;20077;-60
2024/04/09 11:22:42;;;;;;;3.45;1.08;;;17.10;34.20;;;;;;5374266;26;20076;-60
2024/04/09 11:25:19;;;;;;;3.42;1.05;;;17.10;34.10;;;;;;5375042;26;20378;-60
2024/04/09 11:27:49;;;;;;;;;;;17.20;34.20;;;;;;5367762;26;20108;-60
2024/04/09 11:30:29;;;;;;;5.97;1.42;;;17.20;34.30;;;;;;5374876;26;19994;-60
2024/04/09 11:32:56;;;;;;;2.08;1.15;;;17.10;34.10;;;;;;5373002;26;20068;-60
2024/04/09 11:35:24;;;;;;;4.47;1.42;;;17.10;34.10;;;;;;5374769;26;20154;-60
2024/04/09 11:37:55;;;;;;;5.00;1.08;;;17.00;34.50;;;;;;5373096;26;20245;-60
2024/04/09 11:40:29;;;;;;;3.80;1.13;;;17.00;34.90;;;;;;5365898;26;20551;-59
2024/04/09 11:42:58;;;;;;;5.68;1.23;;;16.90;35.20;;;;;;5373911;26;20091;-60
2024/04/09 11:45:30;;;;;;;6.13;1.30;;;16.80;35.60;;;;;;5374273;26;20077;-60
2024/04/09 11:47:57;;;;;;;8.73;1.30;;;16.80;35.90;;;;;;5374893;26;20112;-60
2024/04/09 11:50:25;;;;;;;3.75;1.30;;;16.80;35.80;;;;;;5374256;26;20076;-61
2024/04/09 11:52:52;;;;;;;4.80;1.17;;;16.80;35.40;;;;;;5374740;26;20069;-60
2024/04/09 11:55:18;;;;;;;2.42;1.10;;;16.80;35.40;;;;;;5374060;26;20398;-60
2024/04/09 11:57:46;;;;;;;3.17;1.02;;;16.70;35.40;;;;;;5371379;26;20128;-60
2024/04/09 12:00:13;;;;;;;3.63;1.17;;;16.70;35.40;;;;;;5365138;26;20433;-61
2024/04/09 12:02:41;;;;;;;5.00;1.23;;;16.70;35.60;;;;;;5370238;26;20884;-60
2024/04/09 12:05:08;;;;;;;3.78;1.40;;;16.60;35.70;;;;;;5374303;26;20069;-60
2024/04/09 12:07:34;;;;;;;3.47;1.40;;;16.60;35.60;;;;;;5374634;26;20619;-61
2024/04/09 12:10:00;;;;;;;3.00;1.00;;;16.60;35.80;;;;;;5375108;26;20064;-61
2024/04/09 12:12:28;;;;;;;4.30;1.30;;;16.60;35.80;;;;;;5374645;26;20072;-60
2024/04/09 12:14:54;;;;;;;2.88;1.10;;;16.50;36.10;;;;;;5373601;26;20080;-60
2024/04/09 12:17:20;;;;;;;5.57;1.17;;;16.50;36.30;;;;;;5374226;26;20410;-60
2024/04/09 12:19:47;;;;;;;4.00;1.20;;;16.50;36.40;;;;;;5310434;26;20071;-60
2024/04/09 12:22:17;;;;;;;4.25;1.10;;;16.50;36.60;;;;;;5304936;26;20066;-60
2024/04/09 12:24:44;;;;;;;7.20;1.70;;;16.40;36.90;;;;;;5302858;26;20066;-60
2024/04/09 12:27:11;;;;;;;7.30;1.90;;;16.30;37.30;;;;;;5304645;26;20151;-60
2024/04/09 12:29:37;;;;;;;7.65;2.20;;;16.20;37.50;;;;;;5304501;26;20097;-61
2024/04/09 12:32:06;;;;;;;3.58;1.73;;;16.00;37.60;;;;;;5304745;26;20067;-60
2024/04/09 12:34:34;;;;;;;10.00;2.03;;;15.90;37.80;;;;;;5302721;26;20070;-60
2024/04/09 12:37:00;;;;;;;9.38;1.77;;;15.90;37.70;;;;;;5304126;26;20547;-61
2024/04/09 12:39:30;;;;;;;7.28;1.95;;;15.80;38.10;;;;;;5305637;26;20467;-60
2024/04/09 12:42:00;;;;;;;7.70;2.10;;;15.80;38.00;;;;;;5304535;26;20264;-60
2024/04/09 12:44:27;;;;;;;5.88;1.35;;;15.80;38.10;;;;;;5303903;26;20070;-60
2024/04/09 12:46:53;;;;;;;6.85;1.65;;;15.80;38.00;;;;;;5304691;26;20453;-59